createdAt,value
2018-08-12T00:00:36.055Z,39.90
2018-08-12T00:03:05.296Z,40.10
2018-08-12T00:05:33.079Z,42.90
2018-08-12T00:08:00.743Z,44.00
2018-08-12T00:10:28.377Z,43.30
2018-08-12T00:12:56.033Z,40.70
2018-08-12T00:15:23.670Z,37.70
2018-08-12T00:17:51.295Z,39.70
2018-08-12T00:20:20.840Z,39.90
2018-08-12T00:22:49.123Z,40.90
2018-08-12T00:25:19.754Z,42.90
2018-08-12T00:27:47.560Z,41.60
2018-08-12T00:30:16.426Z,41.90
2018-08-12T00:32:44.143Z,42.80
2018-08-12T00:35:13.378Z,43.40
2018-08-12T00:37:41.555Z,43.40
2018-08-12T00:40:10.864Z,44.50
2018-08-12T00:42:38.531Z,44.60
2018-08-12T00:45:10.207Z,44.30
2018-08-12T00:47:37.934Z,43.20
2018-08-12T00:50:07.178Z,43.60
2018-08-12T00:52:34.921Z,41.80
2018-08-12T00:55:02.612Z,42.60
2018-08-12T00:57:30.323Z,42.40
2018-08-12T00:59:58.062Z,42.80
2018-08-12T01:02:25.851Z,42.00
2018-08-12T01:04:53.529Z,42.20
2018-08-12T01:07:21.241Z,42.60
2018-08-12T01:09:48.901Z,44.00
2018-08-12T01:12:16.518Z,44.20
2018-08-12T01:14:44.171Z,42.30
2018-08-12T01:17:11.923Z,41.40
2018-08-12T01:19:39.550Z,41.20
2018-08-12T01:22:07.194Z,41.10
2018-08-12T01:24:35.675Z,41.40
2018-08-12T01:27:03.342Z,40.90
2018-08-12T01:29:31.776Z,43.20
2018-08-12T01:31:59.436Z,43.90
2018-08-12T01:34:27.035Z,43.70
2018-08-12T01:36:54.661Z,43.20
2018-08-12T01:39:22.234Z,41.90
2018-08-12T01:41:49.835Z,40.20
2018-08-12T01:44:17.510Z,40.80
2018-08-12T01:46:45.101Z,42.00
2018-08-12T01:49:12.759Z,41.80
2018-08-12T01:51:41.068Z,41.40
2018-08-12T01:54:08.703Z,39.00
2018-08-12T01:56:36.339Z,40.20
2018-08-12T01:59:03.910Z,41.20
2018-08-12T02:01:31.524Z,43.20
2018-08-12T02:03:59.240Z,43.10
2018-08-12T02:06:26.988Z,40.30
2018-08-12T02:08:54.903Z,40.60
2018-08-12T02:11:22.675Z,42.90
2018-08-12T02:13:50.298Z,43.50
2018-08-12T02:16:17.954Z,42.50
2018-08-12T02:18:45.523Z,42.70
2018-08-12T02:21:13.171Z,43.20
2018-08-12T02:23:40.765Z,44.10
2018-08-12T02:26:08.428Z,42.20
2018-08-12T02:28:36.075Z,43.00
2018-08-12T02:31:03.683Z,44.30
2018-08-12T02:33:31.364Z,45.00
2018-08-12T02:35:58.964Z,44.10
2018-08-12T02:38:27.639Z,43.00
2018-08-12T02:40:55.231Z,41.10
2018-08-12T02:43:22.917Z,42.10
2018-08-12T02:45:50.644Z,43.30
2018-08-12T02:48:18.239Z,42.90
2018-08-12T02:50:45.812Z,43.20
2018-08-12T02:53:13.484Z,44.30
2018-08-12T02:55:44.980Z,43.50
2018-08-12T02:58:12.587Z,43.20
2018-08-12T03:00:40.178Z,41.80
2018-08-12T03:03:07.994Z,41.30
2018-08-12T03:05:35.616Z,41.00
2018-08-12T03:08:03.280Z,42.10
2018-08-12T03:10:30.911Z,42.50
2018-08-12T03:12:58.480Z,43.30
2018-08-12T03:15:26.125Z,44.00
2018-08-12T03:17:53.760Z,44.80
2018-08-12T03:20:21.433Z,44.20
2018-08-12T03:22:49.793Z,43.70
2018-08-12T03:25:17.496Z,43.00
2018-08-12T03:27:45.101Z,40.00
2018-08-12T03:30:12.800Z,40.40
2018-08-12T03:32:40.855Z,43.70
2018-08-12T03:35:08.731Z,44.50
2018-08-12T03:37:36.378Z,41.80
2018-08-12T03:40:06.136Z,43.10
2018-08-12T03:42:33.788Z,44.60
2018-08-12T03:45:01.564Z,43.00
2018-08-12T03:47:29.196Z,43.40
2018-08-12T03:49:56.771Z,43.90
2018-08-12T03:52:24.530Z,43.20
2018-08-12T03:54:52.142Z,44.10
2018-08-12T03:57:19.787Z,43.80
2018-08-12T03:59:47.520Z,43.50
2018-08-12T04:02:15.236Z,45.00
2018-08-12T04:04:42.851Z,44.10
2018-08-12T04:07:10.613Z,42.20
2018-08-12T04:09:38.195Z,42.50
2018-08-12T04:12:05.842Z,42.10
2018-08-12T04:14:33.424Z,43.40
2018-08-12T04:17:01.214Z,42.50
2018-08-12T04:19:30.261Z,44.40
2018-08-12T04:21:57.975Z,45.80
2018-08-12T04:24:26.065Z,45.70
2018-08-12T04:26:53.741Z,45.40
2018-08-12T04:29:21.797Z,44.20
2018-08-12T04:31:49.544Z,43.40
2018-08-12T04:34:17.536Z,41.50
2018-08-12T04:36:45.166Z,44.00
2018-08-12T04:39:13.693Z,45.00
2018-08-12T04:41:43.296Z,44.20
2018-08-12T04:44:11.154Z,44.50
2018-08-12T04:46:38.899Z,43.30
2018-08-12T04:49:08.019Z,43.20
2018-08-12T04:51:35.811Z,43.70
2018-08-12T04:54:03.537Z,43.40
2018-08-12T04:56:31.187Z,45.60
2018-08-12T04:58:58.823Z,45.20
2018-08-12T05:01:26.443Z,44.90
2018-08-12T05:03:54.043Z,42.90
2018-08-12T05:06:21.655Z,45.70
2018-08-12T05:08:49.324Z,41.00
2018-08-12T05:11:17.270Z,45.20
2018-08-12T05:13:44.841Z,43.40
2018-08-12T05:16:12.439Z,44.70
2018-08-12T05:18:40.023Z,44.30
2018-08-12T05:21:07.627Z,45.00
2018-08-12T05:23:35.192Z,43.60
2018-08-12T05:26:02.906Z,44.40
2018-08-12T05:28:30.531Z,45.80
2018-08-12T05:30:58.163Z,44.30
2018-08-12T05:33:25.815Z,44.80
2018-08-12T05:35:54.331Z,43.60
2018-08-12T05:38:21.955Z,44.30
2018-08-12T05:40:49.603Z,44.80
2018-08-12T05:43:17.280Z,43.70
2018-08-12T05:45:44.874Z,44.70
2018-08-12T05:48:14.339Z,44.00
2018-08-12T05:50:41.976Z,41.80
2018-08-12T05:53:09.586Z,44.00
2018-08-12T05:55:37.176Z,43.60
2018-08-12T05:58:05.091Z,43.00
2018-08-12T06:00:32.831Z,44.00
2018-08-12T06:03:00.732Z,43.00
2018-08-12T06:05:28.311Z,42.70
2018-08-12T06:07:55.949Z,43.20
2018-08-12T06:10:23.547Z,43.20
2018-08-12T06:12:51.188Z,42.90
2018-08-12T06:15:18.884Z,40.70
2018-08-12T06:17:46.466Z,40.70
2018-08-12T06:20:14.694Z,42.30
2018-08-12T06:22:42.352Z,42.50
2018-08-12T06:25:11.199Z,41.50
2018-08-12T06:27:39.844Z,41.50
2018-08-12T06:30:10.869Z,40.00
2018-08-12T06:32:38.777Z,42.20
2018-08-12T06:35:07.256Z,42.10
2018-08-12T06:37:35.244Z,41.90
2018-08-12T06:40:03.839Z,41.90
2018-08-12T06:42:31.420Z,41.70
2018-08-12T06:44:59.129Z,39.90
2018-08-12T06:47:26.817Z,37.40
2018-08-12T06:49:54.457Z,38.40
2018-08-12T06:52:22.186Z,36.70
2018-08-12T06:54:49.752Z,36.70
2018-08-12T06:57:17.463Z,36.60
2018-08-12T06:59:45.062Z,39.00
2018-08-12T07:02:12.688Z,40.80
2018-08-12T07:04:40.319Z,38.40
2018-08-12T07:07:08.111Z,38.80
2018-08-12T07:09:35.770Z,38.10
2018-08-12T07:12:03.446Z,36.40
2018-08-12T07:14:31.681Z,38.60
2018-08-12T07:16:59.348Z,39.30
2018-08-12T07:19:27.035Z,36.80
2018-08-12T07:21:54.685Z,41.30
2018-08-12T07:24:22.267Z,41.10
2018-08-12T07:26:49.948Z,41.00
2018-08-12T07:29:17.600Z,40.50
2018-08-12T07:31:45.239Z,39.10
2018-08-12T07:34:12.895Z,39.80
2018-08-12T07:36:40.511Z,39.90
2018-08-12T07:39:09.051Z,39.70
2018-08-12T07:41:36.724Z,37.70
2018-08-12T07:44:04.395Z,39.10
2018-08-12T07:46:32.756Z,33.80
2018-08-12T07:49:00.403Z,37.90
2018-08-12T07:51:28.384Z,37.50
2018-08-12T07:53:56.023Z,37.30
2018-08-12T07:56:23.640Z,33.80
2018-08-12T07:58:51.260Z,37.30
2018-08-12T08:01:18.910Z,32.50
2018-08-12T08:03:46.562Z,32.70
2018-08-12T08:06:14.969Z,37.10
2018-08-12T08:08:42.640Z,37.50
2018-08-12T08:11:11.151Z,37.30
2018-08-12T08:13:38.815Z,37.40
2018-08-12T08:16:06.808Z,32.90
2018-08-12T08:18:35.055Z,36.00
2018-08-12T08:21:03.413Z,36.50
2018-08-12T08:23:31.027Z,36.90
2018-08-12T08:25:58.715Z,37.00
2018-08-12T08:28:26.368Z,32.60
2018-08-12T08:30:54.102Z,36.10
2018-08-12T08:33:21.747Z,36.30
2018-08-12T08:35:49.377Z,36.60
2018-08-12T08:38:17.056Z,36.30
2018-08-12T08:40:44.731Z,36.50
2018-08-12T08:43:12.398Z,36.30
2018-08-12T08:45:41.127Z,35.50
2018-08-12T08:48:09.467Z,33.80
2018-08-12T08:50:37.186Z,34.90
2018-08-12T08:53:04.997Z,35.30
2018-08-12T08:55:33.350Z,35.40
2018-08-12T08:58:00.994Z,35.60
2018-08-12T09:00:28.666Z,31.00
2018-08-12T09:02:56.396Z,29.10
2018-08-12T09:05:24.036Z,28.30
2018-08-12T09:07:51.915Z,27.50
2018-08-12T09:10:19.987Z,31.40
2018-08-12T09:12:47.723Z,33.90
2018-08-12T09:15:16.855Z,34.50
2018-08-12T09:17:45.099Z,34.10
2018-08-12T09:20:14.394Z,34.20
2018-08-12T09:22:42.168Z,34.00
2018-08-12T09:25:10.564Z,31.50
2018-08-12T09:27:38.398Z,31.70
2018-08-12T09:30:08.757Z,32.60
2018-08-12T09:32:38.745Z,28.80
2018-08-12T09:35:06.456Z,25.30
2018-08-12T09:37:34.202Z,27.50
2018-08-12T09:40:01.859Z,26.70
2018-08-12T09:42:29.539Z,29.50
2018-08-12T09:44:57.836Z,25.30
2018-08-12T09:47:34.354Z,25.30
2018-08-12T09:50:02.047Z,27.60
2018-08-12T09:52:29.891Z,28.00
2018-08-12T09:54:57.579Z,28.80
2018-08-12T09:57:25.324Z,28.40
2018-08-12T09:59:52.978Z,25.30
2018-08-12T10:02:20.860Z,24.60
2018-08-12T10:04:48.666Z,25.50
2018-08-12T10:07:16.604Z,26.30
2018-08-12T10:09:44.365Z,27.10
2018-08-12T10:12:12.075Z,27.90
2018-08-12T10:14:39.813Z,28.20
2018-08-12T10:17:07.826Z,23.70
2018-08-12T10:19:35.931Z,23.30
2018-08-12T10:22:04.066Z,23.00
2018-08-12T10:24:32.652Z,26.50
2018-08-12T10:27:00.425Z,23.60
2018-08-12T10:29:28.308Z,22.60
2018-08-12T10:31:56.538Z,26.20
2018-08-12T10:34:24.322Z,26.60
2018-08-12T10:36:52.074Z,23.00
2018-08-12T10:39:20.595Z,22.60
2018-08-12T10:41:48.534Z,22.40
2018-08-12T10:44:16.556Z,21.80
2018-08-12T10:46:44.272Z,21.70
2018-08-12T10:49:12.505Z,22.10
2018-08-12T10:51:40.588Z,21.80
2018-08-12T10:54:08.369Z,21.70
2018-08-12T10:56:36.092Z,22.70
2018-08-12T10:59:04.191Z,21.60
2018-08-12T11:01:32.116Z,20.70
2018-08-12T11:03:59.915Z,21.00
2018-08-12T11:06:27.585Z,23.60
2018-08-12T11:08:55.490Z,22.30
2018-08-12T11:11:25.872Z,20.30
2018-08-12T11:13:53.499Z,21.50
2018-08-12T11:16:21.116Z,25.20
2018-08-12T11:18:48.875Z,21.40
2018-08-12T11:21:16.676Z,23.80
2018-08-12T11:23:45.116Z,23.40
2018-08-12T11:26:12.855Z,22.10
2018-08-12T11:28:40.639Z,21.00
2018-08-12T11:31:08.239Z,22.20
2018-08-12T11:33:35.840Z,19.70
2018-08-12T11:36:03.470Z,21.10
2018-08-12T11:38:31.349Z,20.50
2018-08-12T11:40:59.991Z,20.10
2018-08-12T11:43:27.801Z,21.60
2018-08-12T11:45:55.539Z,20.20
2018-08-12T11:48:23.213Z,21.20
2018-08-12T11:50:50.954Z,21.40
2018-08-12T11:53:18.854Z,22.00
2018-08-12T11:55:46.731Z,20.90
2018-08-12T11:58:14.323Z,23.10
2018-08-12T12:00:41.973Z,20.20
2018-08-12T12:03:09.685Z,22.90
2018-08-12T12:05:37.501Z,23.60
2018-08-12T12:08:05.165Z,20.90
2018-08-12T12:10:32.854Z,20.50
2018-08-12T12:13:00.533Z,21.90
2018-08-12T12:15:28.206Z,19.50
2018-08-12T12:17:57.053Z,18.80
2018-08-12T12:20:24.712Z,21.60
2018-08-12T12:22:52.339Z,23.60
2018-08-12T12:25:21.415Z,24.50
2018-08-12T12:27:49.073Z,24.30
2018-08-12T12:30:19.290Z,22.40
2018-08-12T12:32:47.728Z,19.70
2018-08-12T12:35:15.551Z,19.80
2018-08-12T12:37:43.795Z,19.10
2018-08-12T12:40:13.300Z,17.20
2018-08-12T12:42:41.146Z,18.70
2018-08-12T12:45:10.564Z,20.80
2018-08-12T12:47:38.939Z,19.50
2018-08-12T12:50:09.359Z,22.70
2018-08-12T12:52:37.453Z,23.70
2018-08-12T12:55:05.311Z,18.90
2018-08-12T12:57:33.120Z,18.50
2018-08-12T13:00:01.022Z,17.80
2018-08-12T13:02:28.711Z,18.10
2018-08-12T13:04:56.345Z,20.50
2018-08-12T13:07:24.017Z,18.00
2018-08-12T13:09:51.609Z,17.20
2018-08-12T13:12:19.280Z,17.30
2018-08-12T13:14:46.871Z,18.70
2018-08-12T13:17:15.278Z,18.00
2018-08-12T13:19:43.019Z,18.70
2018-08-12T13:22:10.691Z,17.80
2018-08-12T13:24:38.391Z,17.40
2018-08-12T13:27:07.080Z,21.50
2018-08-12T13:29:35.759Z,18.10
2018-08-12T13:32:03.472Z,17.70
2018-08-12T13:34:31.130Z,19.50
2018-08-12T13:36:59.603Z,18.50
2018-08-12T13:39:27.215Z,19.30
2018-08-12T13:41:54.875Z,21.50
2018-08-12T13:44:22.550Z,23.90
2018-08-12T13:46:50.436Z,23.70
2018-08-12T13:49:18.342Z,18.70
2018-08-12T13:51:45.984Z,19.50
2018-08-12T13:54:13.754Z,20.50
2018-08-12T13:56:41.577Z,22.90
2018-08-12T13:59:09.293Z,24.30
2018-08-12T14:01:37.107Z,20.30
2018-08-12T14:04:04.980Z,25.40
2018-08-12T14:06:32.896Z,24.30
2018-08-12T14:09:00.604Z,19.50
2018-08-12T14:11:28.474Z,21.00
2018-08-12T14:13:56.335Z,18.70
2018-08-12T14:16:24.010Z,18.90
2018-08-12T14:18:51.830Z,19.80
2018-08-12T14:21:19.542Z,19.60
2018-08-12T14:23:47.143Z,21.60
2018-08-12T14:26:14.871Z,24.40
2018-08-12T14:28:42.595Z,25.50
2018-08-12T14:31:10.264Z,19.20
2018-08-12T14:33:38.941Z,19.60
2018-08-12T14:36:07.561Z,20.00
2018-08-12T14:38:35.349Z,21.60
2018-08-12T14:41:03.077Z,20.40
2018-08-12T14:43:30.797Z,19.90
2018-08-12T14:45:58.384Z,25.70
2018-08-12T14:48:26.186Z,22.00
2018-08-12T14:50:54.007Z,23.00
2018-08-12T14:53:21.747Z,24.80
2018-08-12T14:55:49.381Z,26.00
2018-08-12T14:58:17.112Z,27.20
2018-08-12T15:00:45.059Z,26.30
2018-08-12T15:03:12.758Z,23.60
2018-08-12T15:05:40.409Z,24.20
2018-08-12T15:08:08.059Z,26.70
2018-08-12T15:10:35.854Z,22.50
2018-08-12T15:13:03.543Z,25.20
2018-08-12T15:15:31.201Z,23.20
2018-08-12T15:17:58.896Z,21.50
2018-08-12T15:20:26.670Z,24.90
2018-08-12T15:22:54.403Z,21.20
2018-08-12T15:25:21.990Z,21.30
2018-08-12T15:27:49.761Z,26.40
2018-08-12T15:30:17.603Z,27.30
2018-08-12T15:32:45.514Z,25.50
2018-08-12T15:35:13.309Z,22.40
2018-08-12T15:37:40.956Z,21.30
2018-08-12T15:40:10.818Z,27.40
2018-08-12T15:42:38.757Z,21.90
2018-08-12T15:45:08.875Z,25.90
2018-08-12T15:47:36.588Z,23.90
2018-08-12T15:50:05.260Z,26.10
2018-08-12T15:52:32.882Z,23.50
2018-08-12T15:55:00.515Z,23.20
2018-08-12T15:57:28.324Z,22.30
2018-08-12T15:59:55.945Z,22.50
2018-08-12T16:02:23.687Z,22.30
2018-08-12T16:04:51.351Z,25.60
2018-08-12T16:07:19.762Z,21.70
2018-08-12T16:09:48.654Z,24.40
2018-08-12T16:12:16.281Z,22.60
2018-08-12T16:17:21.463Z,27.60
2018-08-12T16:19:50.419Z,23.30
2018-08-12T16:22:20.065Z,23.10
2018-08-12T16:24:48.277Z,23.60
2018-08-12T16:27:15.956Z,23.50
2018-08-12T16:29:44.480Z,23.40
2018-08-12T16:32:12.811Z,23.60
2018-08-12T16:34:40.487Z,23.60
2018-08-12T16:37:09.306Z,23.80
2018-08-12T16:39:36.957Z,23.80
2018-08-12T16:42:05.796Z,23.70
2018-08-12T16:44:33.482Z,23.90
2018-08-12T16:47:01.166Z,28.70
2018-08-12T16:49:28.936Z,26.00
2018-08-12T16:51:56.476Z,24.30
2018-08-12T16:54:24.183Z,24.60
2018-08-12T16:56:51.894Z,26.20
2018-08-12T16:59:19.534Z,24.60
2018-08-12T17:01:47.147Z,24.70
2018-08-12T17:04:15.000Z,24.80
2018-08-12T17:06:42.645Z,27.70
2018-08-12T17:09:11.601Z,31.50
2018-08-12T17:11:39.267Z,28.40
2018-08-12T17:14:07.587Z,31.00
2018-08-12T17:16:35.203Z,25.90
2018-08-12T17:19:02.928Z,30.80
2018-08-12T17:21:30.583Z,33.10
2018-08-12T17:23:58.179Z,33.80
2018-08-12T17:26:25.967Z,29.00
2018-08-12T17:28:53.604Z,32.90
2018-08-12T17:31:22.054Z,34.90
2018-08-12T17:33:49.826Z,35.20
2018-08-12T17:36:17.405Z,35.40
2018-08-12T17:38:45.067Z,35.70
2018-08-12T17:41:12.711Z,35.70
2018-08-12T17:43:40.322Z,36.10
2018-08-12T17:46:08.905Z,36.20
2018-08-12T17:48:36.523Z,36.10
2018-08-12T17:51:04.259Z,36.10
2018-08-12T17:53:31.900Z,36.00
2018-08-12T17:55:59.570Z,36.00
2018-08-12T17:58:27.240Z,36.00
2018-08-12T18:00:54.870Z,36.00
2018-08-12T18:03:22.555Z,36.20
2018-08-12T18:05:50.219Z,36.20
2018-08-12T18:08:17.877Z,36.20
2018-08-12T18:10:45.487Z,36.30
2018-08-12T18:13:13.107Z,36.30
2018-08-12T18:15:40.750Z,36.40
2018-08-12T18:18:08.606Z,36.40
2018-08-12T18:20:36.301Z,36.30
2018-08-12T18:23:04.591Z,36.40
2018-08-12T18:25:32.753Z,36.50
2018-08-12T18:28:00.425Z,36.50
2018-08-12T18:30:28.052Z,36.60
2018-08-12T18:32:55.669Z,36.90
2018-08-12T18:35:23.407Z,36.70
2018-08-12T18:37:52.001Z,36.80
2018-08-12T18:40:20.427Z,36.80
2018-08-12T18:42:48.036Z,36.70
2018-08-12T18:45:15.658Z,36.80
2018-08-12T18:47:43.300Z,36.80
2018-08-12T18:50:11.478Z,37.00
2018-08-12T18:52:39.656Z,37.20
2018-08-12T18:55:08.792Z,36.50
2018-08-12T18:57:36.452Z,37.10
2018-08-12T19:00:05.361Z,37.10
2018-08-12T19:02:33.042Z,37.20
2018-08-12T19:05:00.699Z,37.30
2018-08-12T19:07:28.483Z,37.50
2018-08-12T19:09:56.149Z,37.60
2018-08-12T19:12:23.679Z,37.70
2018-08-12T19:14:51.328Z,37.80
2018-08-12T19:17:18.907Z,37.70
2018-08-12T19:19:47.524Z,37.80
2018-08-12T19:22:15.180Z,33.50
2018-08-12T19:24:43.062Z,36.40
2018-08-12T19:27:10.812Z,38.00
2018-08-12T19:29:38.641Z,38.20
2018-08-12T19:32:07.112Z,38.30
2018-08-12T19:34:34.860Z,38.30
2018-08-12T19:37:02.654Z,38.50
2018-08-12T19:39:30.553Z,38.40
2018-08-12T19:41:58.305Z,36.70
2018-08-12T19:44:25.948Z,32.60
2018-08-12T19:46:54.044Z,35.20
2018-08-12T19:49:21.840Z,38.60
2018-08-12T19:51:49.730Z,38.90
2018-08-12T19:54:17.515Z,37.90
2018-08-12T19:56:45.215Z,32.70
2018-08-12T19:59:12.900Z,37.20
2018-08-12T20:01:40.616Z,34.60
2018-08-12T20:04:08.923Z,36.60
2018-08-12T20:06:36.527Z,36.10
2018-08-12T20:09:08.066Z,39.00
2018-08-12T20:11:35.858Z,39.10
2018-08-12T20:14:03.816Z,39.40
2018-08-12T20:16:32.606Z,39.60
2018-08-12T20:19:00.228Z,39.70
2018-08-12T20:21:34.545Z,36.50
2018-08-12T20:24:03.156Z,33.20
2018-08-12T20:26:31.061Z,38.60
2018-08-12T20:28:58.698Z,39.40
2018-08-12T20:31:26.499Z,39.80
2018-08-12T20:33:54.491Z,39.80
2018-08-12T20:36:22.136Z,39.90
2018-08-12T20:38:49.774Z,40.00
2018-08-12T20:41:17.432Z,40.10
2018-08-12T20:43:45.135Z,40.10
2018-08-12T20:46:12.839Z,40.30
2018-08-12T20:48:40.531Z,40.30
2018-08-12T20:51:08.728Z,40.40
2018-08-12T20:53:36.380Z,40.60
2018-08-12T20:56:03.972Z,40.70
2018-08-12T20:58:31.676Z,40.80
2018-08-12T21:00:59.280Z,40.80
2018-08-12T21:03:26.978Z,41.40
2018-08-12T21:05:54.592Z,41.10
2018-08-12T21:08:22.323Z,41.10
2018-08-12T21:10:49.963Z,41.00
2018-08-12T21:13:17.623Z,40.90
2018-08-12T21:15:45.280Z,41.00
2018-08-12T21:18:12.943Z,40.90
2018-08-12T21:20:40.531Z,40.90
2018-08-12T21:23:08.171Z,40.90
2018-08-12T21:25:35.755Z,40.80
2018-08-12T21:28:03.570Z,40.80
2018-08-12T21:30:31.152Z,40.80
2018-08-12T21:32:59.570Z,40.70
2018-08-12T21:35:27.204Z,40.70
2018-08-12T21:37:54.843Z,40.60
2018-08-12T21:40:23.017Z,40.60
2018-08-12T21:42:50.592Z,40.70
2018-08-12T21:45:18.324Z,40.60
2018-08-12T21:47:46.006Z,40.70
2018-08-12T21:50:13.563Z,40.40
2018-08-12T21:52:41.182Z,40.70
2018-08-12T21:55:08.975Z,40.80
2018-08-12T21:57:36.679Z,40.90
2018-08-12T22:00:08.905Z,41.50
2018-08-12T22:02:36.537Z,40.90
2018-08-12T22:05:04.530Z,40.90
2018-08-12T22:07:32.285Z,40.90
2018-08-12T22:09:59.903Z,40.90
2018-08-12T22:12:27.496Z,40.90
2018-08-12T22:14:55.063Z,40.90
2018-08-12T22:17:22.693Z,40.90
2018-08-12T22:19:50.359Z,40.80
2018-08-12T22:22:17.961Z,40.70
2018-08-12T22:24:45.564Z,40.80
2018-08-12T22:27:14.036Z,40.30
2018-08-12T22:29:41.648Z,40.80
2018-08-12T22:32:09.355Z,40.80
2018-08-12T22:34:36.966Z,40.90
2018-08-12T22:37:04.678Z,40.90
2018-08-12T22:39:32.341Z,40.90
2018-08-12T22:41:59.923Z,41.00
2018-08-12T22:44:27.520Z,40.90
2018-08-12T22:46:55.111Z,40.90
2018-08-12T22:49:22.760Z,40.90
2018-08-12T22:51:50.359Z,41.00
2018-08-12T22:54:18.047Z,41.00
2018-08-12T22:56:45.652Z,41.00
2018-08-12T22:59:13.281Z,41.00
2018-08-12T23:01:40.976Z,41.00
2018-08-12T23:04:08.611Z,41.10
2018-08-12T23:06:36.242Z,41.20
2018-08-12T23:09:06.647Z,41.20
2018-08-12T23:11:35.611Z,37.70
2018-08-12T23:14:03.578Z,36.60
2018-08-12T23:16:42.436Z,39.10
2018-08-12T23:19:10.003Z,39.50
2018-08-12T23:21:37.742Z,36.80
2018-08-12T23:24:05.830Z,37.30
2018-08-12T23:26:33.496Z,36.60
2018-08-12T23:29:01.219Z,37.70
2018-08-12T23:31:29.822Z,41.30
2018-08-12T23:33:57.628Z,41.60
2018-08-12T23:36:25.357Z,37.10
2018-08-12T23:38:52.996Z,37.60
2018-08-12T23:41:20.747Z,38.70
2018-08-12T23:43:48.475Z,41.90
2018-08-12T23:46:16.230Z,41.30
2018-08-12T23:48:43.975Z,41.60
2018-08-12T23:51:11.759Z,41.20
2018-08-12T23:53:39.420Z,37.20
2018-08-12T23:56:07.163Z,40.20
2018-08-12T23:58:34.709Z,38.90
